Saturday, January 31, 2015
05:28 UTC
  |  Log In   |  Register Free
Airport Search:

New River Valley Airport
(KPSK)

New River Valley Airport Diagram
No Airport Diagram Available

FAA data valid effective January 08, 2015 - March 05, 2015 (unless otherwise noted).

 
 
 
 
 
 
 
 
 
 
 
 
 
 

Current Aviation Weather for New River Valley Airport (KPSK)

The most recent METAR observation for KPSK was updated at: 0515
METAR Summary (Translated METAR)
KPSK
310455Z AUTO 28009KT 10SM CLR M05/M11 A3028 RMK AO2 T10511115
KBCB
310455Z AUTO 27008G15KT 10SM CLR M07/M13 A3029 RMK AO2 T10751135 400451075
(13.6 nm NE from KPSK)
KHLX
310455Z AUTO 31013G16KT 10SM CLR M06/M13 A3022 RMK AO2 T10601135 400501060
(23.4 nm SW from KPSK)
TAF Summary (Translated TAF)
KBCB
(13.6 nm NE from KPSK)
310520Z 3106/0106 26008KT P6SM SKC FM310900 30005KT P6SM SKC FM312000 27006KT P6SM BKN200
  Airport Weather Conditions for KPSK

 Current Weather at PSK
22° F
Fair
North winds at 0.0 mph
PSK NOAA Radar

Pressure: 30.29 in
Humidity: 60%
Wind: Calm
Dew Point: 10.4°F
Visibility: 10.00 mi


Airport Weather Forecast for KPSK

Translated METAR and TAF for KPSK
Translated METAR for KPSK (0529 UTC 31 January 2015)
found at http://aviationweather.gov/adds/metars/
 
METAR text: KPSK 310515Z AUTO 31004KT 10SM CLR M05/M11 A3028 RMK AO2 T10521115
Conditions at: KPSK (DUBLIN/NEW RIV , VA, US) observed 0515 UTC 31 January 2015
Temperature: -5.2°C (23°F)
Dewpoint: -11.5°C (11°F) [RH = 61%]
Pressure (altimeter): 30.28 inches Hg (1025.5 mb)
Winds: from the NW (310 degrees) at 5 MPH (4 knots; 2.1 m/s)
Visibility: 10 or more miles (16+ km)
Ceiling: at least 12,000 feet AGL
Clouds: sky clear below 12,000 feet AGL
Weather: automated observation with no human augmentation;
there may or may not be significant weather present at this time
Translated TAF for KPSK

There is no translated TAF available for this airport

Find All Airport Services Find A Hotel Find A Rental Car Find A Golf Course Find A Restaurant $100 Hamburger



FBO's on the Field
FBO Company Facility Photos Services Transportation Aviation Fuel Prices: Prices include tax
Catering Weather Repair Courtesy Rental Type 100LL JetA JetA+ MOGAS 8087
 
New River Valley Airport

This FBO has not yet been rated
FS:Avfuel
Last Updated: Jan-02
Login to update fuel prices
SS:
Contact New River Valley AirportMore FBO Information
 
Add another FBO Facility Photos Catering Weather Repair Courtesy Rental Type 100LL JetA JetA+ MOGAS 8087
Services Transportation Aviation Fuel Prices: Prices include tax


model-print
model-print
model-print
model-print